createdAt,value
2019-02-23T00:01:41.647Z,22.63
2019-02-23T00:06:45.674Z,25.97
2019-02-23T00:11:49.869Z,30.00
2019-02-23T00:16:54.033Z,24.10
2019-02-23T00:21:58.048Z,21.40
2019-02-23T00:27:02.122Z,20.20
2019-02-23T00:32:06.221Z,22.30
2019-02-23T00:37:13.216Z,22.73
2019-02-23T00:42:17.337Z,26.37
2019-02-23T00:47:21.360Z,21.90
2019-02-23T00:52:25.588Z,20.97
2019-02-23T00:57:29.553Z,21.47
2019-02-23T01:02:34.465Z,23.97
2019-02-23T01:07:38.478Z,24.57
2019-02-23T01:12:42.363Z,23.07
2019-02-23T01:17:46.432Z,27.03
2019-02-23T01:22:50.768Z,22.67
2019-02-23T01:27:54.677Z,26.47
2019-02-23T01:32:58.818Z,28.90
2019-02-23T01:38:02.994Z,26.60
2019-02-23T01:43:07.280Z,27.37
2019-02-23T01:48:11.561Z,25.10
2019-02-23T01:53:16.110Z,26.17
2019-02-23T01:58:20.144Z,28.53
2019-02-23T02:03:25.043Z,32.40
2019-02-23T02:08:29.287Z,33.50
2019-02-23T02:13:33.458Z,31.13
2019-02-23T02:18:37.587Z,31.50
2019-02-23T02:23:41.714Z,25.90
2019-02-23T02:28:45.738Z,28.57
2019-02-23T02:34:03.108Z,28.20
2019-02-23T02:39:10.903Z,30.93
2019-02-23T02:44:15.016Z,26.23
2019-02-23T02:49:18.980Z,29.33
2019-02-23T02:54:23.068Z,28.23
2019-02-23T02:59:27.094Z,27.07
2019-02-23T03:04:32.010Z,25.87
2019-02-23T03:09:35.983Z,28.27
2019-02-23T03:14:39.993Z,28.27
2019-02-23T03:19:43.964Z,31.93
2019-02-23T03:24:47.998Z,26.53
2019-02-23T03:29:52.023Z,27.03
2019-02-23T03:34:55.994Z,28.07
2019-02-23T03:40:00.095Z,24.10
2019-02-23T03:45:04.678Z,31.70
2019-02-23T03:50:08.889Z,31.90
2019-02-23T03:55:12.817Z,28.37
2019-02-23T04:00:16.937Z,32.17
2019-02-23T04:05:22.032Z,28.90
2019-02-23T04:10:26.119Z,25.40
2019-02-23T04:15:30.248Z,28.83
2019-02-23T04:20:34.471Z,31.83
2019-02-23T04:25:38.629Z,28.57
2019-02-23T04:30:42.628Z,26.07
2019-02-23T04:35:46.752Z,27.33
2019-02-23T04:40:50.923Z,29.20
2019-02-23T04:45:55.013Z,28.30
2019-02-23T04:50:59.137Z,31.67
2019-02-23T04:56:03.057Z,29.03
2019-02-23T05:01:07.137Z,26.40
2019-02-23T05:06:11.352Z,29.17
2019-02-23T05:11:15.314Z,27.27
2019-02-23T05:16:19.388Z,29.60
2019-02-23T05:21:26.792Z,30.67
2019-02-23T05:26:29.262Z,35.20
2019-02-23T05:31:33.282Z,32.97
2019-02-23T05:36:37.267Z,29.40
2019-02-23T05:41:41.247Z,33.50
2019-02-23T05:46:45.362Z,33.33
2019-02-23T05:51:49.302Z,38.53
2019-02-23T05:56:53.457Z,28.33
2019-02-23T06:01:57.454Z,30.00
2019-02-23T06:07:02.498Z,38.13
2019-02-23T06:12:06.616Z,35.47
2019-02-23T06:17:10.819Z,32.17
2019-02-23T06:22:15.025Z,31.37
2019-02-23T06:27:19.202Z,33.13
2019-02-23T06:32:23.339Z,32.80
2019-02-23T06:37:27.361Z,34.37
2019-02-23T06:42:31.321Z,30.93
2019-02-23T06:47:35.427Z,32.27
2019-02-23T06:52:39.431Z,31.47
2019-02-23T06:57:43.463Z,30.23
2019-02-23T07:02:47.494Z,32.37
2019-02-23T07:07:51.719Z,27.10
2019-02-23T07:12:55.857Z,30.03
2019-02-23T07:18:00.277Z,35.40
2019-02-23T07:23:04.348Z,30.53
2019-02-23T07:28:10.884Z,43.50
2019-02-23T07:33:14.402Z,41.97
2019-02-23T07:38:18.536Z,34.33
2019-02-23T07:43:22.659Z,32.50
2019-02-23T07:48:26.606Z,38.40
2019-02-23T07:53:30.641Z,32.33
2019-02-23T07:58:34.730Z,27.47
2019-02-23T08:03:38.857Z,29.10
2019-02-23T08:08:43.916Z,33.90
2019-02-23T08:13:48.024Z,34.17
2019-02-23T08:18:51.962Z,28.40
2019-02-23T08:23:55.988Z,37.33
2019-02-23T08:29:00.133Z,25.80
2019-02-23T08:34:04.241Z,31.67
2019-02-23T08:39:08.376Z,36.20
2019-02-23T08:44:12.497Z,36.53
2019-02-23T08:49:16.570Z,32.40
2019-02-23T08:54:20.652Z,30.47
2019-02-23T08:59:24.676Z,32.53
2019-02-23T09:04:28.811Z,40.77
2019-02-23T09:09:33.906Z,35.97
2019-02-23T09:14:38.287Z,32.23
2019-02-23T09:19:42.518Z,28.40
2019-02-23T09:24:46.551Z,33.63
2019-02-23T09:29:50.690Z,28.13
2019-02-23T09:34:54.598Z,32.90
2019-02-23T09:39:59.136Z,30.73
2019-02-23T09:45:03.467Z,31.20
2019-02-23T09:50:08.208Z,27.87
2019-02-23T09:55:13.033Z,38.13
2019-02-23T10:00:17.286Z,37.10
2019-02-23T10:05:21.526Z,37.00
2019-02-23T10:10:25.817Z,36.93
2019-02-23T10:15:29.867Z,31.00
2019-02-23T10:20:33.950Z,32.57
2019-02-23T10:25:38.134Z,46.60
2019-02-23T10:30:43.386Z,35.30
2019-02-23T10:35:47.617Z,32.63
2019-02-23T10:40:51.664Z,30.70
2019-02-23T10:45:55.671Z,34.90
2019-02-23T10:50:59.687Z,30.73
2019-02-23T10:56:03.711Z,33.07
2019-02-23T11:01:07.628Z,32.80
2019-02-23T11:06:11.818Z,33.67
2019-02-23T11:11:16.247Z,37.03
2019-02-23T11:16:20.532Z,35.47
2019-02-23T11:21:24.767Z,31.80
2019-02-23T11:26:29.049Z,31.93
2019-02-23T11:31:33.226Z,30.50
2019-02-23T11:36:37.347Z,29.57
2019-02-23T11:41:41.499Z,28.10
2019-02-23T11:46:59.842Z,26.47
2019-02-23T11:51:51.279Z,33.90
2019-02-23T11:56:55.463Z,46.47
2019-02-23T12:01:59.527Z,27.77
2019-02-23T12:07:03.758Z,31.50
2019-02-23T12:12:07.934Z,30.17
2019-02-23T12:17:11.940Z,31.97
2019-02-23T12:22:18.501Z,31.93
2019-02-23T12:27:22.411Z,34.53
2019-02-23T12:32:26.542Z,40.60
2019-02-23T12:37:30.613Z,41.73
2019-02-23T12:42:35.013Z,29.77
2019-02-23T12:47:38.990Z,38.97
2019-02-23T12:52:43.345Z,39.57
2019-02-23T12:57:47.365Z,38.30
2019-02-23T13:02:51.932Z,37.77
2019-02-23T13:07:55.891Z,42.60
2019-02-23T13:13:16.937Z,31.30
2019-02-23T13:18:38.046Z,36.73
2019-02-23T13:24:03.027Z,36.43
2019-02-23T13:29:16.416Z,37.17
2019-02-23T13:34:48.132Z,36.63
2019-02-23T13:40:11.001Z,34.83
2019-02-23T13:45:30.647Z,45.50
2019-02-23T13:50:42.969Z,47.43
2019-02-23T13:56:03.902Z,42.07
2019-02-23T14:01:22.356Z,48.03
2019-02-23T14:06:34.029Z,50.13
2019-02-23T14:11:53.495Z,44.80
2019-02-23T14:17:09.396Z,60.27
2019-02-23T14:22:27.244Z,70.27
2019-02-23T14:27:53.193Z,78.07
2019-02-23T14:33:15.701Z,94.63
2019-02-23T14:38:33.795Z,70.97
2019-02-23T14:43:50.786Z,53.57
2019-02-23T14:49:10.848Z,48.80
2019-02-23T14:54:21.867Z,47.27
2019-02-23T14:59:52.347Z,50.10
2019-02-23T15:05:12.458Z,43.40
2019-02-23T15:10:31.133Z,38.37
2019-02-23T15:15:53.081Z,39.03
2019-02-23T15:21:19.941Z,40.33
2019-02-23T15:26:37.219Z,38.70
2019-02-23T15:32:00.153Z,37.13
2019-02-23T15:37:17.631Z,35.87
2019-02-23T15:42:34.104Z,43.20
2019-02-23T15:47:49.862Z,40.13
2019-02-23T15:52:54.011Z,29.10
2019-02-23T15:57:57.978Z,28.77
2019-02-23T16:03:02.142Z,33.23
2019-02-23T16:08:06.062Z,24.27
2019-02-23T16:13:10.334Z,29.57
2019-02-23T16:18:14.478Z,28.73
2019-02-23T16:23:18.947Z,27.87
2019-02-23T16:28:23.186Z,42.17
2019-02-23T16:33:27.419Z,54.00
2019-02-23T16:38:31.534Z,117.90
2019-02-23T16:43:35.691Z,107.07
2019-02-23T16:48:39.667Z,57.77
2019-02-23T16:53:43.667Z,102.30
2019-02-23T16:58:48.007Z,38.10
2019-02-23T17:03:52.130Z,39.63
2019-02-23T17:08:56.316Z,44.80
2019-02-23T17:14:00.338Z,45.13
2019-02-23T17:24:22.586Z,49.97
2019-02-23T17:29:26.815Z,48.40
2019-02-23T17:34:30.817Z,62.17
2019-02-23T17:39:35.012Z,56.43
2019-02-23T17:44:39.084Z,79.37
2019-02-23T17:49:43.105Z,89.43
2019-02-23T17:54:47.339Z,53.63
2019-02-23T17:59:51.931Z,52.17
2019-02-23T18:04:56.217Z,52.93
2019-02-23T18:10:00.392Z,52.27
2019-02-23T18:15:04.886Z,48.17
2019-02-23T18:20:10.284Z,44.97
2019-02-23T18:25:14.777Z,42.00
2019-02-23T18:30:18.998Z,52.90
2019-02-23T18:35:23.172Z,43.20
2019-02-23T18:40:27.211Z,64.70
2019-02-23T18:45:31.312Z,84.80
2019-02-23T18:50:35.351Z,53.13
2019-02-23T18:55:41.325Z,75.27
2019-02-23T19:00:45.233Z,41.07
2019-02-23T19:05:50.157Z,37.23
2019-02-23T19:10:55.805Z,24.10
2019-02-23T19:16:02.140Z,66.53
2019-02-23T19:21:06.057Z,24.77
2019-02-23T19:26:10.138Z,21.23
2019-02-23T19:31:14.146Z,22.70
2019-02-23T19:36:18.230Z,24.00
2019-02-23T19:41:22.255Z,19.23
2019-02-23T19:46:26.690Z,25.00
2019-02-23T19:51:30.982Z,33.67
2019-02-23T19:56:35.105Z,45.80
2019-02-23T20:01:39.438Z,21.43
2019-02-23T20:06:43.671Z,21.03
2019-02-23T20:11:48.747Z,21.97
2019-02-23T20:16:54.857Z,20.00
2019-02-23T20:21:58.923Z,36.70
2019-02-23T20:27:03.374Z,23.87
2019-02-23T20:32:07.442Z,31.63
2019-02-23T20:37:11.508Z,78.47
2019-02-23T20:42:15.588Z,277.77
2019-02-23T20:47:22.793Z,350.97
2019-02-23T20:52:27.124Z,400.40
2019-02-23T20:57:31.513Z,120.83
2019-02-23T21:02:35.683Z,88.60
2019-02-23T21:07:39.912Z,426.27
2019-02-23T21:12:43.868Z,345.90
2019-02-23T21:17:47.814Z,614.07
2019-02-23T21:22:52.024Z,329.20
2019-02-23T21:27:56.118Z,192.53
2019-02-23T21:33:00.062Z,432.97
2019-02-23T21:38:04.105Z,380.20
2019-02-23T21:43:08.198Z,417.57
2019-02-23T21:48:12.473Z,514.07
2019-02-23T21:53:17.612Z,446.80
2019-02-23T21:58:21.756Z,167.67
2019-02-23T22:03:25.942Z,175.90
2019-02-23T22:08:29.968Z,307.90
2019-02-23T22:13:34.262Z,325.47
2019-02-23T22:18:38.355Z,542.17
2019-02-23T22:23:42.554Z,714.97
2019-02-23T22:28:46.660Z,587.30
2019-02-23T22:33:50.698Z,267.83
2019-02-23T22:38:54.824Z,293.03
2019-02-23T22:44:00.061Z,338.23
2019-02-23T22:49:04.319Z,397.43
2019-02-23T22:54:08.320Z,328.80
2019-02-23T22:59:12.253Z,150.77
2019-02-23T23:04:16.288Z,160.07
2019-02-23T23:09:20.438Z,122.27
2019-02-23T23:14:24.489Z,133.97
2019-02-23T23:19:28.722Z,130.97
2019-02-23T23:24:32.808Z,202.27
2019-02-23T23:29:37.274Z,205.53
2019-02-23T23:34:41.409Z,106.43
2019-02-23T23:39:45.592Z,114.93
2019-02-23T23:44:49.718Z,136.00
2019-02-23T23:49:53.742Z,114.80
2019-02-23T23:54:57.772Z,163.80
